sensor_id;sensor_type;location;lat;lon;timestamp;pressure;altitude;pressure_sealevel;temperature;humidity
22651;BME280;11492;42.646;23.400;2023-03-22T00:01:21;94692.72;;;9.69;86.78
22651;BME280;11492;42.646;23.400;2023-03-22T00:03:48;94688.13;;;9.64;87.08
22651;BME280;11492;42.646;23.400;2023-03-22T00:06:14;94681.72;;;9.60;87.13
22651;BME280;11492;42.646;23.400;2023-03-22T00:08:41;94666.13;;;9.47;88.04
22651;BME280;11492;42.646;23.400;2023-03-22T00:11:07;94675.41;;;9.63;87.30
22651;BME280;11492;42.646;23.400;2023-03-22T00:13:34;94688.25;;;9.77;87.05
22651;BME280;11492;42.646;23.400;2023-03-22T00:16:00;94685.78;;;9.69;84.76
22651;BME280;11492;42.646;23.400;2023-03-22T00:18:27;94664.38;;;9.69;84.42
22651;BME280;11492;42.646;23.400;2023-03-22T00:20:54;94681.38;;;9.63;82.94
22651;BME280;11492;42.646;23.400;2023-03-22T00:23:20;94674.75;;;9.75;83.44
22651;BME280;11492;42.646;23.400;2023-03-22T00:25:46;94681.69;;;9.89;82.72
22651;BME280;11492;42.646;23.400;2023-03-22T00:28:13;94683.78;;;9.99;82.93
22651;BME280;11492;42.646;23.400;2023-03-22T00:30:39;94675.00;;;9.94;83.00
22651;BME280;11492;42.646;23.400;2023-03-22T00:33:05;94685.00;;;10.03;82.45
22651;BME280;11492;42.646;23.400;2023-03-22T00:35:30;94681.47;;;10.04;81.21
22651;BME280;11492;42.646;23.400;2023-03-22T00:37:56;94677.59;;;9.94;81.19
22651;BME280;11492;42.646;23.400;2023-03-22T00:40:22;94669.06;;;9.94;81.24
22651;BME280;11492;42.646;23.400;2023-03-22T00:42:47;94673.59;;;10.12;81.79
22651;BME280;11492;42.646;23.400;2023-03-22T00:45:13;94675.41;;;9.97;82.77
22651;BME280;11492;42.646;23.400;2023-03-22T00:47:38;94669.22;;;9.92;82.72
22651;BME280;11492;42.646;23.400;2023-03-22T00:50:05;94665.25;;;10.10;83.13
22651;BME280;11492;42.646;23.400;2023-03-22T00:52:31;94658.66;;;10.08;82.94
22651;BME280;11492;42.646;23.400;2023-03-22T00:54:56;94669.13;;;10.21;83.35
22651;BME280;11492;42.646;23.400;2023-03-22T00:57:22;94657.75;;;9.95;82.14
22651;BME280;11492;42.646;23.400;2023-03-22T00:59:48;94659.09;;;9.91;82.19
22651;BME280;11492;42.646;23.400;2023-03-22T01:02:13;94656.47;;;10.05;82.76
22651;BME280;11492;42.646;23.400;2023-03-22T01:04:40;94661.53;;;10.19;83.74
22651;BME280;11492;42.646;23.400;2023-03-22T01:07:14;94654.13;;;10.10;83.23
22651;BME280;11492;42.646;23.400;2023-03-22T01:09:49;94657.66;;;10.09;82.69
22651;BME280;11492;42.646;23.400;2023-03-22T01:12:16;94648.09;;;10.03;81.51
22651;BME280;11492;42.646;23.400;2023-03-22T01:14:42;94647.94;;;10.04;82.41
22651;BME280;11492;42.646;23.400;2023-03-22T01:17:08;94652.09;;;9.85;82.74
22651;BME280;11492;42.646;23.400;2023-03-22T01:19:35;94649.63;;;9.97;82.47
22651;BME280;11492;42.646;23.400;2023-03-22T01:22:02;94648.34;;;9.87;82.83
22651;BME280;11492;42.646;23.400;2023-03-22T01:24:28;94647.44;;;9.95;82.26
22651;BME280;11492;42.646;23.400;2023-03-22T01:26:54;94640.53;;;10.01;82.85
22651;BME280;11492;42.646;23.400;2023-03-22T01:29:19;94643.47;;;9.98;82.83
22651;BME280;11492;42.646;23.400;2023-03-22T01:31:45;94637.28;;;9.93;82.39
22651;BME280;11492;42.646;23.400;2023-03-22T01:34:10;94637.72;;;9.96;82.82
22651;BME280;11492;42.646;23.400;2023-03-22T01:36:36;94641.88;;;9.97;83.36
22651;BME280;11492;42.646;23.400;2023-03-22T01:39:01;94635.28;;;9.89;83.42
22651;BME280;11492;42.646;23.400;2023-03-22T01:41:28;94637.66;;;9.90;83.88
22651;BME280;11492;42.646;23.400;2023-03-22T01:44:07;94634.53;;;9.95;83.78
22651;BME280;11492;42.646;23.400;2023-03-22T01:46:33;94638.09;;;9.94;83.39
22651;BME280;11492;42.646;23.400;2023-03-22T01:49:00;94644.16;;;9.72;83.66
22651;BME280;11492;42.646;23.400;2023-03-22T01:51:27;94634.66;;;9.87;83.41
22651;BME280;11492;42.646;23.400;2023-03-22T01:54:02;94634.75;;;9.79;83.55
22651;BME280;11492;42.646;23.400;2023-03-22T01:56:32;94638.47;;;9.91;83.09
22651;BME280;11492;42.646;23.400;2023-03-22T01:58:59;94637.94;;;9.81;83.32
22651;BME280;11492;42.646;23.400;2023-03-22T02:01:25;94635.34;;;9.81;82.98
22651;BME280;11492;42.646;23.400;2023-03-22T02:03:55;94647.09;;;9.83;83.52
22651;BME280;11492;42.646;23.400;2023-03-22T02:06:23;94641.50;;;9.80;83.44
22651;BME280;11492;42.646;23.400;2023-03-22T02:08:49;94646.09;;;9.64;83.10
22651;BME280;11492;42.646;23.400;2023-03-22T02:11:24;94643.06;;;9.60;83.66
22651;BME280;11492;42.646;23.400;2023-03-22T02:14:09;94645.63;;;9.60;83.52
22651;BME280;11492;42.646;23.400;2023-03-22T02:43:55;94658.84;;;10.06;84.28
22651;BME280;11492;42.646;23.400;2023-03-22T02:49:45;94655.47;;;10.06;83.83
22651;BME280;11492;42.646;23.400;2023-03-22T02:52:18;94664.81;;;10.07;83.66
22651;BME280;11492;42.646;23.400;2023-03-22T02:55:30;94657.06;;;10.07;83.76
22651;BME280;11492;42.646;23.400;2023-03-22T02:58:03;94648.34;;;9.87;84.17
22651;BME280;11492;42.646;23.400;2023-03-22T03:00:32;94665.94;;;9.84;84.08
22651;BME280;11492;42.646;23.400;2023-03-22T03:03:05;94663.63;;;9.89;85.00
22651;BME280;11492;42.646;23.400;2023-03-22T03:05:38;94652.34;;;9.90;84.99
22651;BME280;11492;42.646;23.400;2023-03-22T03:08:03;94655.56;;;9.98;84.10
22651;BME280;11492;42.646;23.400;2023-03-22T03:10:31;94655.22;;;10.01;83.90
22651;BME280;11492;42.646;23.400;2023-03-22T03:12:57;94651.22;;;9.98;83.97
22651;BME280;11492;42.646;23.400;2023-03-22T03:15:23;94677.34;;;9.89;84.30
22651;BME280;11492;42.646;23.400;2023-03-22T03:23:13;94663.00;;;9.87;83.29
22651;BME280;11492;42.646;23.400;2023-03-22T03:30:48;94657.25;;;9.85;83.39
22651;BME280;11492;42.646;23.400;2023-03-22T03:33:18;94663.69;;;9.95;83.41
22651;BME280;11492;42.646;23.400;2023-03-22T03:35:53;94664.97;;;9.85;82.93
22651;BME280;11492;42.646;23.400;2023-03-22T03:38:25;94675.19;;;9.78;82.54
22651;BME280;11492;42.646;23.400;2023-03-22T03:40:56;94670.84;;;9.79;82.20
22651;BME280;11492;42.646;23.400;2023-03-22T03:43:23;94670.75;;;9.87;82.26
22651;BME280;11492;42.646;23.400;2023-03-22T03:45:53;94673.75;;;9.90;82.86
22651;BME280;11492;42.646;23.400;2023-03-22T03:48:27;94658.16;;;9.63;81.64
22651;BME280;11492;42.646;23.400;2023-03-22T03:50:55;94676.38;;;9.62;81.67
22651;BME280;11492;42.646;23.400;2023-03-22T03:53:21;94675.09;;;9.72;81.37
22651;BME280;11492;42.646;23.400;2023-03-22T03:55:46;94680.09;;;9.73;81.10
22651;BME280;11492;42.646;23.400;2023-03-22T03:58:11;94674.16;;;9.73;81.44
22651;BME280;11492;42.646;23.400;2023-03-22T04:00:37;94678.81;;;9.84;82.50
22651;BME280;11492;42.646;23.400;2023-03-22T04:03:03;94689.44;;;9.89;82.50
22651;BME280;11492;42.646;23.400;2023-03-22T04:05:30;94683.72;;;9.79;82.84
22651;BME280;11492;42.646;23.400;2023-03-22T04:07:55;94677.94;;;9.77;82.54
22651;BME280;11492;42.646;23.400;2023-03-22T04:10:20;94675.47;;;9.83;83.12
22651;BME280;11492;42.646;23.400;2023-03-22T04:12:46;94685.22;;;9.88;82.84
22651;BME280;11492;42.646;23.400;2023-03-22T04:15:11;94691.09;;;9.82;82.19
22651;BME280;11492;42.646;23.400;2023-03-22T04:17:38;94683.63;;;9.72;82.11
22651;BME280;11492;42.646;23.400;2023-03-22T04:20:05;94698.78;;;9.61;81.66
22651;BME280;11492;42.646;23.400;2023-03-22T04:22:31;94693.34;;;9.70;81.78
22651;BME280;11492;42.646;23.400;2023-03-22T04:25:03;94695.44;;;9.81;82.86
22651;BME280;11492;42.646;23.400;2023-03-22T04:27:29;94696.88;;;9.84;82.60
22651;BME280;11492;42.646;23.400;2023-03-22T04:29:54;94690.38;;;9.88;82.79
22651;BME280;11492;42.646;23.400;2023-03-22T04:32:21;94698.03;;;9.96;82.55
22651;BME280;11492;42.646;23.400;2023-03-22T04:34:51;94694.09;;;9.99;82.94
22651;BME280;11492;42.646;23.400;2023-03-22T04:37:18;94699.25;;;9.99;82.65
22651;BME280;11492;42.646;23.400;2023-03-22T04:39:44;94702.13;;;9.76;82.51
22651;BME280;11492;42.646;23.400;2023-03-22T04:42:10;94695.91;;;9.85;82.64
22651;BME280;11492;42.646;23.400;2023-03-22T04:44:36;94710.06;;;9.89;82.60
22651;BME280;11492;42.646;23.400;2023-03-22T04:47:01;94691.47;;;9.79;83.01
22651;BME280;11492;42.646;23.400;2023-03-22T04:49:27;94688.88;;;9.79;82.84
22651;BME280;11492;42.646;23.400;2023-03-22T04:51:53;94708.34;;;9.67;82.07
22651;BME280;11492;42.646;23.400;2023-03-22T04:54:19;94711.72;;;9.68;82.77
22651;BME280;11492;42.646;23.400;2023-03-22T04:56:45;94711.28;;;9.78;82.67
22651;BME280;11492;42.646;23.400;2023-03-22T04:59:11;94712.69;;;9.81;82.63
22651;BME280;11492;42.646;23.400;2023-03-22T05:01:36;94715.19;;;9.74;82.54
22651;BME280;11492;42.646;23.400;2023-03-22T05:04:02;94715.56;;;9.71;82.71
22651;BME280;11492;42.646;23.400;2023-03-22T05:06:28;94721.69;;;9.85;83.01
22651;BME280;11492;42.646;23.400;2023-03-22T05:08:57;94716.69;;;9.83;83.30
22651;BME280;11492;42.646;23.400;2023-03-22T05:11:23;94724.47;;;9.69;82.95
22651;BME280;11492;42.646;23.400;2023-03-22T05:13:54;94732.19;;;9.69;83.85
22651;BME280;11492;42.646;23.400;2023-03-22T05:16:20;94714.16;;;9.41;83.41
22651;BME280;11492;42.646;23.400;2023-03-22T05:18:46;94716.94;;;9.53;83.66
22651;BME280;11492;42.646;23.400;2023-03-22T05:21:12;94732.19;;;9.69;83.07
22651;BME280;11492;42.646;23.400;2023-03-22T05:23:40;94739.53;;;9.72;82.52
22651;BME280;11492;42.646;23.400;2023-03-22T05:26:06;94740.19;;;9.60;82.37
22651;BME280;11492;42.646;23.400;2023-03-22T05:28:33;94736.03;;;9.59;82.58
22651;BME280;11492;42.646;23.400;2023-03-22T05:30:58;94734.50;;;9.64;82.59
22651;BME280;11492;42.646;23.400;2023-03-22T05:33:24;94730.78;;;9.52;81.88
22651;BME280;11492;42.646;23.400;2023-03-22T05:35:49;94737.09;;;9.64;82.24
22651;BME280;11492;42.646;23.400;2023-03-22T05:38:15;94744.88;;;9.70;82.95
22651;BME280;11492;42.646;23.400;2023-03-22T05:40:42;94746.41;;;9.79;84.40
22651;BME280;11492;42.646;23.400;2023-03-22T05:43:07;94742.59;;;9.90;84.21
22651;BME280;11492;42.646;23.400;2023-03-22T05:45:34;94740.94;;;10.03;82.23
22651;BME280;11492;42.646;23.400;2023-03-22T05:48:01;94743.41;;;10.11;82.49
22651;BME280;11492;42.646;23.400;2023-03-22T05:50:27;94744.81;;;10.13;82.33
22651;BME280;11492;42.646;23.400;2023-03-22T05:52:53;94752.66;;;10.20;81.46
22651;BME280;11492;42.646;23.400;2023-03-22T05:55:18;94754.50;;;10.25;82.02
22651;BME280;11492;42.646;23.400;2023-03-22T05:57:45;94760.06;;;10.29;82.37
22651;BME280;11492;42.646;23.400;2023-03-22T06:00:13;94758.28;;;10.29;81.97
22651;BME280;11492;42.646;23.400;2023-03-22T06:02:41;94759.22;;;10.22;82.26
22651;BME280;11492;42.646;23.400;2023-03-22T06:05:07;94767.81;;;10.29;81.55
22651;BME280;11492;42.646;23.400;2023-03-22T06:07:35;94765.94;;;10.37;81.15
22651;BME280;11492;42.646;23.400;2023-03-22T06:10:01;94768.94;;;10.41;80.90
22651;BME280;11492;42.646;23.400;2023-03-22T06:12:26;94763.16;;;10.39;81.48
22651;BME280;11492;42.646;23.400;2023-03-22T06:14:52;94777.31;;;10.43;81.18
22651;BME280;11492;42.646;23.400;2023-03-22T06:17:17;94778.69;;;10.45;80.77
22651;BME280;11492;42.646;23.400;2023-03-22T06:19:43;94773.53;;;10.45;80.71
22651;BME280;11492;42.646;23.400;2023-03-22T06:22:09;94779.16;;;10.48;80.05
22651;BME280;11492;42.646;23.400;2023-03-22T06:24:34;94779.59;;;10.52;78.05
22651;BME280;11492;42.646;23.400;2023-03-22T06:27:00;94770.84;;;10.53;78.22
22651;BME280;11492;42.646;23.400;2023-03-22T06:29:26;94771.59;;;10.47;79.15
22651;BME280;11492;42.646;23.400;2023-03-22T06:31:51;94777.56;;;10.47;78.39
22651;BME280;11492;42.646;23.400;2023-03-22T06:34:16;94778.94;;;10.50;79.60
22651;BME280;11492;42.646;23.400;2023-03-22T06:36:42;94778.84;;;10.58;80.80
22651;BME280;11492;42.646;23.400;2023-03-22T06:39:07;94784.44;;;10.61;80.74
22651;BME280;11492;42.646;23.400;2023-03-22T06:41:34;94768.06;;;10.54;80.14
22651;BME280;11492;42.646;23.400;2023-03-22T06:43:59;94768.97;;;10.61;80.02
22651;BME280;11492;42.646;23.400;2023-03-22T06:46:25;94781.97;;;10.74;80.31
22651;BME280;11492;42.646;23.400;2023-03-22T06:48:50;94776.06;;;10.80;80.25
22651;BME280;11492;42.646;23.400;2023-03-22T06:51:16;94791.69;;;10.93;79.33
22651;BME280;11492;42.646;23.400;2023-03-22T06:53:41;94785.56;;;11.00;80.55
22651;BME280;11492;42.646;23.400;2023-03-22T06:56:07;94787.38;;;10.99;79.64
22651;BME280;11492;42.646;23.400;2023-03-22T06:58:32;94791.59;;;11.07;80.25
22651;BME280;11492;42.646;23.400;2023-03-22T07:00:58;94802.78;;;11.14;79.32
22651;BME280;11492;42.646;23.400;2023-03-22T07:03:26;94800.09;;;10.80;78.35
22651;BME280;11492;42.646;23.400;2023-03-22T07:05:52;94802.63;;;10.74;78.61
22651;BME280;11492;42.646;23.400;2023-03-22T07:08:17;94802.38;;;10.90;78.71
22651;BME280;11492;42.646;23.400;2023-03-22T07:10:48;94809.63;;;10.80;77.42
22651;BME280;11492;42.646;23.400;2023-03-22T07:13:13;94814.31;;;10.70;77.81
22651;BME280;11492;42.646;23.400;2023-03-22T07:15:38;94794.28;;;10.51;76.71
22651;BME280;11492;42.646;23.400;2023-03-22T07:18:05;94820.72;;;10.74;77.53
22651;BME280;11492;42.646;23.400;2023-03-22T07:20:33;94822.19;;;10.83;78.01
22651;BME280;11492;42.646;23.400;2023-03-22T07:23:01;94818.63;;;10.84;77.59
22651;BME280;11492;42.646;23.400;2023-03-22T07:25:26;94816.38;;;10.81;78.24
22651;BME280;11492;42.646;23.400;2023-03-22T07:27:52;94822.44;;;10.88;78.98
22651;BME280;11492;42.646;23.400;2023-03-22T07:30:17;94833.13;;;10.85;78.29
22651;BME280;11492;42.646;23.400;2023-03-22T07:32:43;94837.44;;;10.78;78.85
22651;BME280;11492;42.646;23.400;2023-03-22T07:35:08;94825.69;;;10.75;77.41
22651;BME280;11492;42.646;23.400;2023-03-22T07:37:34;94831.53;;;10.84;78.08
22651;BME280;11492;42.646;23.400;2023-03-22T07:39:59;94826.06;;;10.72;77.98
22651;BME280;11492;42.646;23.400;2023-03-22T07:42:25;94817.31;;;10.73;77.40
22651;BME280;11492;42.646;23.400;2023-03-22T07:44:50;94827.53;;;10.81;76.96
22651;BME280;11492;42.646;23.400;2023-03-22T07:47:16;94821.56;;;10.81;76.75
22651;BME280;11492;42.646;23.400;2023-03-22T07:49:42;94841.84;;;11.04;77.47
22651;BME280;11492;42.646;23.400;2023-03-22T07:52:07;94842.06;;;11.03;77.15
22651;BME280;11492;42.646;23.400;2023-03-22T07:54:33;94848.31;;;10.94;77.26
22651;BME280;11492;42.646;23.400;2023-03-22T07:56:59;94847.03;;;10.49;76.24
22651;BME280;11492;42.646;23.400;2023-03-22T07:59:25;94849.84;;;10.19;77.47
22651;BME280;11492;42.646;23.400;2023-03-22T08:01:50;94856.44;;;10.36;78.12
22651;BME280;11492;42.646;23.400;2023-03-22T08:04:16;94857.44;;;10.55;78.85
22651;BME280;11492;42.646;23.400;2023-03-22T08:06:41;94843.31;;;10.51;77.86
22651;BME280;11492;42.646;23.400;2023-03-22T08:09:07;94850.84;;;10.67;78.65
22651;BME280;11492;42.646;23.400;2023-03-22T08:11:34;94837.28;;;10.65;78.55
22651;BME280;11492;42.646;23.400;2023-03-22T08:13:59;94852.28;;;10.55;78.54
22651;BME280;11492;42.646;23.400;2023-03-22T08:16:25;94842.44;;;10.65;77.53
22651;BME280;11492;42.646;23.400;2023-03-22T08:18:50;94833.66;;;10.60;78.44
22651;BME280;11492;42.646;23.400;2023-03-22T08:21:16;94839.00;;;10.58;77.96
22651;BME280;11492;42.646;23.400;2023-03-22T08:23:41;94842.59;;;10.57;77.00
22651;BME280;11492;42.646;23.400;2023-03-22T08:26:07;94841.66;;;10.65;77.72
22651;BME280;11492;42.646;23.400;2023-03-22T08:28:32;94843.41;;;10.44;76.13
22651;BME280;11492;42.646;23.400;2023-03-22T08:30:58;94825.47;;;10.36;76.11
22651;BME280;11492;42.646;23.400;2023-03-22T08:33:23;94844.13;;;10.52;76.04
22651;BME280;11492;42.646;23.400;2023-03-22T08:35:50;94856.25;;;10.72;75.78
22651;BME280;11492;42.646;23.400;2023-03-22T08:38:16;94856.50;;;10.77;77.02
22651;BME280;11492;42.646;23.400;2023-03-22T08:40:45;94857.56;;;10.82;77.90
22651;BME280;11492;42.646;23.400;2023-03-22T08:43:11;94856.50;;;10.77;77.26
22651;BME280;11492;42.646;23.400;2023-03-22T08:45:36;94849.81;;;10.82;77.61
22651;BME280;11492;42.646;23.400;2023-03-22T08:48:02;94854.28;;;10.95;78.15
22651;BME280;11492;42.646;23.400;2023-03-22T08:50:28;94862.88;;;11.01;77.32
22651;BME280;11492;42.646;23.400;2023-03-22T08:52:53;94858.72;;;11.00;78.29
22651;BME280;11492;42.646;23.400;2023-03-22T08:55:19;94862.22;;;11.14;79.12
22651;BME280;11492;42.646;23.400;2023-03-22T08:57:44;94854.03;;;11.10;79.01
22651;BME280;11492;42.646;23.400;2023-03-22T09:00:15;94861.84;;;11.17;79.10
22651;BME280;11492;42.646;23.400;2023-03-22T09:02:41;94871.38;;;11.16;79.48
22651;BME280;11492;42.646;23.400;2023-03-22T09:05:07;94871.81;;;11.20;78.66
22651;BME280;11492;42.646;23.400;2023-03-22T09:07:33;94871.88;;;11.26;77.63
22651;BME280;11492;42.646;23.400;2023-03-22T09:09:58;94865.94;;;11.32;78.14
22651;BME280;11492;42.646;23.400;2023-03-22T09:12:24;94868.00;;;11.36;77.06
22651;BME280;11492;42.646;23.400;2023-03-22T09:14:50;94875.56;;;11.38;77.16
22651;BME280;11492;42.646;23.400;2023-03-22T09:17:16;94876.38;;;11.38;76.56
22651;BME280;11492;42.646;23.400;2023-03-22T09:19:43;94869.75;;;11.36;76.55
22651;BME280;11492;42.646;23.400;2023-03-22T09:22:08;94863.00;;;11.35;76.69
22651;BME280;11492;42.646;23.400;2023-03-22T09:24:33;94870.63;;;11.43;76.40
22651;BME280;11492;42.646;23.400;2023-03-22T09:26:59;94867.06;;;11.44;76.32
22651;BME280;11492;42.646;23.400;2023-03-22T09:29:24;94880.06;;;11.50;75.75
22651;BME280;11492;42.646;23.400;2023-03-22T09:31:49;94879.88;;;11.51;75.57
22651;BME280;11492;42.646;23.400;2023-03-22T09:34:15;94882.31;;;11.59;76.27
22651;BME280;11492;42.646;23.400;2023-03-22T09:36:41;94865.38;;;11.57;75.27
22651;BME280;11492;42.646;23.400;2023-03-22T09:39:06;94873.97;;;11.64;76.07
22651;BME280;11492;42.646;23.400;2023-03-22T09:41:42;94878.03;;;11.72;75.24
22651;BME280;11492;42.646;23.400;2023-03-22T09:44:23;94881.66;;;11.78;76.16
22651;BME280;11492;42.646;23.400;2023-03-22T09:46:53;94883.88;;;11.81;75.34
22651;BME280;11492;42.646;23.400;2023-03-22T09:49:23;94877.94;;;11.87;75.88
22651;BME280;11492;42.646;23.400;2023-03-22T09:51:51;94878.16;;;11.92;75.48
22651;BME280;11492;42.646;23.400;2023-03-22T09:54:31;94878.63;;;12.01;75.83
22651;BME280;11492;42.646;23.400;2023-03-22T09:57:13;94872.28;;;12.10;74.50
22651;BME280;11492;42.646;23.400;2023-03-22T10:05:29;94883.31;;;12.25;74.81
22651;BME280;11492;42.646;23.400;2023-03-22T10:10:40;94892.69;;;12.26;74.45
22651;BME280;11492;42.646;23.400;2023-03-22T10:13:33;94888.72;;;12.23;74.00
22651;BME280;11492;42.646;23.400;2023-03-22T10:16:02;94899.41;;;12.14;71.65
22651;BME280;11492;42.646;23.400;2023-03-22T10:18:37;94896.63;;;12.16;71.37
22651;BME280;11492;42.646;23.400;2023-03-22T10:23:49;94895.03;;;12.21;71.22
22651;BME280;11492;42.646;23.400;2023-03-22T10:26:27;94893.44;;;12.14;70.76
22651;BME280;11492;42.646;23.400;2023-03-22T10:28:59;94892.03;;;12.11;72.46
22651;BME280;11492;42.646;23.400;2023-03-22T10:31:29;94899.38;;;12.08;73.32
22651;BME280;11492;42.646;23.400;2023-03-22T10:36:27;94893.16;;;12.02;71.32
22651;BME280;11492;42.646;23.400;2023-03-22T10:38:59;94890.78;;;12.01;74.50
22651;BME280;11492;42.646;23.400;2023-03-22T10:41:28;94886.53;;;11.94;73.34
22651;BME280;11492;42.646;23.400;2023-03-22T10:43:58;94882.53;;;11.91;73.51
22651;BME280;11492;42.646;23.400;2023-03-22T10:46:27;94892.09;;;11.91;73.00
22651;BME280;11492;42.646;23.400;2023-03-22T10:48:59;94897.63;;;11.88;72.04
22651;BME280;11492;42.646;23.400;2023-03-22T10:51:26;94888.63;;;11.77;71.40
22651;BME280;11492;42.646;23.400;2023-03-22T10:53:54;94895.56;;;11.77;70.77
22651;BME280;11492;42.646;23.400;2023-03-22T10:56:20;94887.63;;;11.78;71.61
22651;BME280;11492;42.646;23.400;2023-03-22T10:58:49;94891.25;;;11.84;72.47
22651;BME280;11492;42.646;23.400;2023-03-22T11:01:33;94890.06;;;11.86;73.24
22651;BME280;11492;42.646;23.400;2023-03-22T11:04:12;94868.16;;;11.82;73.25
22651;BME280;11492;42.646;23.400;2023-03-22T11:06:47;94883.94;;;11.94;72.06
22651;BME280;11492;42.646;23.400;2023-03-22T11:09:18;94883.38;;;11.98;72.72
22651;BME280;11492;42.646;23.400;2023-03-22T11:11:55;94887.75;;;11.97;71.94
22651;BME280;11492;42.646;23.400;2023-03-22T11:14:31;94877.00;;;12.00;72.25
22651;BME280;11492;42.646;23.400;2023-03-22T11:17:08;94884.97;;;11.99;70.85
22651;BME280;11492;42.646;23.400;2023-03-22T11:19:41;94887.19;;;12.02;72.52
22651;BME280;11492;42.646;23.400;2023-03-22T11:22:34;94875.41;;;11.99;71.29
22651;BME280;11492;42.646;23.400;2023-03-22T11:25:03;94881.97;;;11.96;70.50
22651;BME280;11492;42.646;23.400;2023-03-22T11:27:32;94875.16;;;11.88;73.07
22651;BME280;11492;42.646;23.400;2023-03-22T11:30:28;94881.75;;;11.91;71.65
22651;BME280;11492;42.646;23.400;2023-03-22T11:33:00;94878.16;;;11.92;72.02
22651;BME280;11492;42.646;23.400;2023-03-22T11:35:29;94882.47;;;11.85;72.17
22651;BME280;11492;42.646;23.400;2023-03-22T11:37:55;94873.31;;;11.82;70.26
22651;BME280;11492;42.646;23.400;2023-03-22T11:40:21;94879.16;;;11.91;69.75
22651;BME280;11492;42.646;23.400;2023-03-22T11:42:51;94874.59;;;11.93;72.13
22651;BME280;11492;42.646;23.400;2023-03-22T11:45:24;94879.00;;;11.98;73.48
22651;BME280;11492;42.646;23.400;2023-03-22T11:47:51;94871.25;;;11.98;72.53
22651;BME280;11492;42.646;23.400;2023-03-22T11:50:27;94871.25;;;11.98;72.71
22651;BME280;11492;42.646;23.400;2023-03-22T11:52:53;94872.66;;;12.01;73.20
22651;BME280;11492;42.646;23.400;2023-03-22T11:55:19;94870.00;;;11.95;69.81
22651;BME280;11492;42.646;23.400;2023-03-22T11:57:45;94874.88;;;11.77;69.84
22651;BME280;11492;42.646;23.400;2023-03-22T12:03:18;94876.13;;;11.81;69.37
22651;BME280;11492;42.646;23.400;2023-03-22T12:05:48;94871.50;;;11.76;69.83
22651;BME280;11492;42.646;23.400;2023-03-22T12:08:38;94879.16;;;11.91;69.96
22651;BME280;11492;42.646;23.400;2023-03-22T12:11:16;94880.00;;;11.97;70.22
22651;BME280;11492;42.646;23.400;2023-03-22T12:16:17;94876.19;;;11.94;70.00
22651;BME280;11492;42.646;23.400;2023-03-22T12:19:16;94867.72;;;11.79;70.49
22651;BME280;11492;42.646;23.400;2023-03-22T12:21:45;94856.53;;;11.72;70.54
22651;BME280;11492;42.646;23.400;2023-03-22T12:24:25;94863.00;;;11.89;71.23
22651;BME280;11492;42.646;23.400;2023-03-22T12:26:55;94872.69;;;12.07;70.85
22651;BME280;11492;42.646;23.400;2023-03-22T12:29:22;94867.75;;;12.12;68.88
22651;BME280;11492;42.646;23.400;2023-03-22T12:31:59;94867.41;;;12.21;70.29
22651;BME280;11492;42.646;23.400;2023-03-22T12:34:40;94875.09;;;12.15;69.33
22651;BME280;11492;42.646;23.400;2023-03-22T12:37:12;94869.22;;;12.27;69.47
22651;BME280;11492;42.646;23.400;2023-03-22T12:39:45;94851.81;;;12.15;69.68
22651;BME280;11492;42.646;23.400;2023-03-22T12:45:13;94864.28;;;12.78;68.31
22651;BME280;11492;42.646;23.400;2023-03-22T12:47:42;94858.94;;;12.99;66.94
22651;BME280;11492;42.646;23.400;2023-03-22T12:50:16;94869.72;;;13.28;66.63
22651;BME280;11492;42.646;23.400;2023-03-22T12:52:52;94862.75;;;13.60;65.75
22651;BME280;11492;42.646;23.400;2023-03-22T12:55:30;94862.34;;;13.76;65.03
22651;BME280;11492;42.646;23.400;2023-03-22T12:57:56;94861.16;;;13.85;64.48
22651;BME280;11492;42.646;23.400;2023-03-22T13:00:35;94863.56;;;13.93;63.98
22651;BME280;11492;42.646;23.400;2023-03-22T13:05:33;94851.50;;;14.17;63.08
22651;BME280;11492;42.646;23.400;2023-03-22T13:08:00;94846.72;;;14.21;62.98
22651;BME280;11492;42.646;23.400;2023-03-22T13:15:37;94853.16;;;13.80;64.14
22651;BME280;11492;42.646;23.400;2023-03-22T13:21:28;94845.81;;;13.58;65.29
22651;BME280;11492;42.646;23.400;2023-03-22T13:31:59;94841.63;;;13.25;66.16
22651;BME280;11492;42.646;23.400;2023-03-22T13:34:45;94834.63;;;13.06;65.35
22651;BME280;11492;42.646;23.400;2023-03-22T13:37:33;94831.00;;;12.95;65.86
22651;BME280;11492;42.646;23.400;2023-03-22T13:40:21;94845.94;;;12.93;67.62
22651;BME280;11492;42.646;23.400;2023-03-22T13:42:50;94848.09;;;12.83;66.24
22651;BME280;11492;42.646;23.400;2023-03-22T13:45:37;94858.09;;;12.79;66.79
22651;BME280;11492;42.646;23.400;2023-03-22T13:48:30;94858.41;;;12.70;68.51
22651;BME280;11492;42.646;23.400;2023-03-22T13:53:37;94865.84;;;12.73;71.51
22651;BME280;11492;42.646;23.400;2023-03-22T13:56:06;94850.22;;;12.60;71.32
22651;BME280;11492;42.646;23.400;2023-03-22T14:01:05;94860.84;;;12.71;74.32
22651;BME280;11492;42.646;23.400;2023-03-22T14:03:35;94847.50;;;12.74;74.51
22651;BME280;11492;42.646;23.400;2023-03-22T14:06:10;94856.09;;;12.81;73.78
22651;BME280;11492;42.646;23.400;2023-03-22T14:08:36;94858.25;;;12.78;73.22
22651;BME280;11492;42.646;23.400;2023-03-22T14:11:12;94843.53;;;12.78;72.09
22651;BME280;11492;42.646;23.400;2023-03-22T14:13:50;94852.72;;;12.94;73.99
22651;BME280;11492;42.646;23.400;2023-03-22T14:16:35;94853.50;;;12.88;72.75
22651;BME280;11492;42.646;23.400;2023-03-22T14:19:04;94856.34;;;12.99;71.14
22651;BME280;11492;42.646;23.400;2023-03-22T14:21:34;94844.56;;;13.03;71.51
22651;BME280;11492;42.646;23.400;2023-03-22T14:24:01;94852.16;;;13.04;68.16
22651;BME280;11492;42.646;23.400;2023-03-22T14:26:34;94852.97;;;13.11;68.76
22651;BME280;11492;42.646;23.400;2023-03-22T14:29:22;94852.97;;;13.11;68.52